Terminal Aerodrome Forecast
Issued by NWS

Home | Current Version | Previous Version | Text Only | Print | Product List | Glossary On
Versions: 1 2 3 4 5 6 7 8 9 10 11 12 13 14 15 16 17 18 19 20 21 22 23 24 25 26 27 28 29 30 31 32 33 34 35 36 37 38 39
000
FTUS43 KDMX 252345
TAFFOD
TAF
KFOD 252345Z 2600/2624 15006KT P6SM SCT070
     FM260200 16012KT P6SM SCT035 OVC080
     FM260700 14013G18KT 2SM -SN BKN012 OVC020
      TEMPO 2609/2610 1/2SM SN OVC010
     FM261100 13011G14KT 3SM -SN BKN009 OVC012
     FM261400 08008KT 4SM -SN OVC009
     FM261900 01011KT P6SM OVC018=

USA.gov is the U.S. government's official web portal to all federal, state and local government web resources and services.